createdAt,value
2019-06-10T00:00:13.513Z,58.30
2019-06-10T00:02:42.145Z,58.40
2019-06-10T00:05:11.715Z,58.30
2019-06-10T00:07:41.243Z,58.30
2019-06-10T00:10:10.900Z,58.40
2019-06-10T00:12:41.948Z,58.60
2019-06-10T00:15:13.837Z,58.50
2019-06-10T00:17:54.816Z,58.50
2019-06-10T00:20:14.630Z,58.80
2019-06-10T00:22:45.359Z,58.90
2019-06-10T00:25:15.403Z,58.80
2019-06-10T00:27:44.952Z,58.80
2019-06-10T00:30:14.638Z,58.80
2019-06-10T00:32:47.451Z,58.80
2019-06-10T00:35:16.999Z,59.00
2019-06-10T00:37:46.543Z,59.00
2019-06-10T00:40:16.098Z,59.00
2019-06-10T00:42:45.602Z,59.10
2019-06-10T00:45:17.995Z,59.20
2019-06-10T00:47:47.970Z,59.20
2019-06-10T00:50:17.508Z,59.30
2019-06-10T00:52:47.092Z,59.30
2019-06-10T00:55:21.049Z,59.60
2019-06-10T00:57:50.960Z,59.30
2019-06-10T01:00:25.534Z,59.40
2019-06-10T01:02:53.817Z,59.50
2019-06-10T01:05:23.366Z,59.90
2019-06-10T01:07:54.046Z,59.90
2019-06-10T01:10:22.759Z,60.00
2019-06-10T01:12:52.293Z,60.10
2019-06-10T01:15:22.155Z,60.20
2019-06-10T01:17:51.712Z,60.20
2019-06-10T01:20:21.251Z,60.30
2019-06-10T01:22:51.600Z,60.20
2019-06-10T01:25:22.306Z,60.50
2019-06-10T01:27:51.861Z,60.80
2019-06-10T01:30:26.507Z,60.90
2019-06-10T01:32:52.763Z,61.40
2019-06-10T01:35:30.679Z,61.70
2019-06-10T01:38:01.068Z,62.20
2019-06-10T01:40:31.411Z,62.60
2019-06-10T01:43:01.195Z,63.00
2019-06-10T01:45:31.222Z,63.00
2019-06-10T01:48:01.445Z,63.10
2019-06-10T01:50:31.226Z,63.30
2019-06-10T01:53:00.775Z,63.60
2019-06-10T01:55:31.242Z,63.50
2019-06-10T01:58:00.929Z,63.30
2019-06-10T02:00:44.840Z,63.50
2019-06-10T02:03:16.581Z,63.80
2019-06-10T02:05:45.721Z,63.90
2019-06-10T02:08:16.599Z,63.70
2019-06-10T02:10:46.519Z,63.50
2019-06-10T02:13:33.215Z,63.40
2019-06-10T02:16:02.801Z,63.30
2019-06-10T02:18:32.428Z,63.20
2019-06-10T02:21:02.040Z,63.30
2019-06-10T02:23:31.828Z,63.20
2019-06-10T02:26:02.019Z,63.60
2019-06-10T02:28:32.137Z,64.60
2019-06-10T02:31:03.861Z,65.70
2019-06-10T02:33:36.411Z,67.70
2019-06-10T02:36:05.016Z,69.70
2019-06-10T02:38:39.412Z,70.80
2019-06-10T02:41:06.228Z,71.70
2019-06-10T02:43:37.825Z,71.90
2019-06-10T02:46:07.741Z,72.30
2019-06-10T02:48:37.266Z,72.70
2019-06-10T02:51:07.264Z,72.70
2019-06-10T02:53:37.427Z,72.50
2019-06-10T02:56:07.876Z,72.50
2019-06-10T02:58:39.494Z,72.60
2019-06-10T03:01:09.191Z,72.00
2019-06-10T03:03:44.558Z,71.60
2019-06-10T03:06:34.858Z,71.30
2019-06-10T03:09:03.455Z,71.00
2019-06-10T03:11:36.907Z,70.80
2019-06-10T03:14:04.471Z,70.30
2019-06-10T03:16:43.415Z,70.40
2019-06-10T03:19:13.299Z,71.00
2019-06-10T03:21:44.369Z,71.20
2019-06-10T03:24:15.206Z,71.40
2019-06-10T03:26:44.719Z,71.00
2019-06-10T03:29:14.243Z,70.80
2019-06-10T03:31:48.208Z,70.90
2019-06-10T03:34:17.637Z,71.00
2019-06-10T03:36:46.471Z,71.70
2019-06-10T03:39:16.252Z,72.70
2019-06-10T03:41:45.790Z,73.00
2019-06-10T03:44:16.825Z,72.50
2019-06-10T03:46:46.540Z,72.40
2019-06-10T03:49:17.140Z,72.30
2019-06-10T03:51:46.827Z,72.30
2019-06-10T03:54:17.407Z,72.20
2019-06-10T03:56:46.923Z,71.80
2019-06-10T03:59:17.182Z,71.30
2019-06-10T04:01:47.947Z,70.70
2019-06-10T04:04:17.496Z,70.50
2019-06-10T04:06:47.085Z,70.70
2019-06-10T04:09:17.429Z,70.40
2019-06-10T04:11:47.075Z,70.30
2019-06-10T04:14:17.594Z,70.20
2019-06-10T04:16:47.204Z,70.10
2019-06-10T04:19:17.632Z,70.00
2019-06-10T04:21:47.167Z,69.90
2019-06-10T04:24:17.658Z,70.00
2019-06-10T04:26:46.567Z,69.80
2019-06-10T04:29:16.035Z,69.70
2019-06-10T04:31:45.546Z,69.90
2019-06-10T04:34:15.077Z,70.10
2019-06-10T04:36:44.609Z,69.90
2019-06-10T04:39:14.145Z,69.90
2019-06-10T04:41:44.038Z,70.20
2019-06-10T04:44:13.681Z,70.40
2019-06-10T04:46:43.253Z,70.70
2019-06-10T04:49:13.272Z,70.60
2019-06-10T04:51:43.427Z,70.90
2019-06-10T04:54:13.493Z,71.00
2019-06-10T04:56:43.271Z,70.80
2019-06-10T04:59:12.814Z,70.70
2019-06-10T05:01:42.727Z,70.70
2019-06-10T05:04:12.760Z,70.60
2019-06-10T05:06:42.492Z,70.30
2019-06-10T05:09:12.555Z,70.30
2019-06-10T05:11:43.210Z,70.30
2019-06-10T05:14:13.333Z,69.90
2019-06-10T05:16:43.309Z,69.60
2019-06-10T05:19:13.113Z,69.80
2019-06-10T05:21:42.714Z,69.80
2019-06-10T05:24:12.677Z,70.50
2019-06-10T05:26:42.771Z,70.30
2019-06-10T05:29:12.400Z,70.20
2019-06-10T05:31:43.544Z,70.40
2019-06-10T05:34:13.326Z,70.70
2019-06-10T05:36:43.809Z,71.50
2019-06-10T05:39:13.465Z,72.00
2019-06-10T05:41:43.435Z,72.40
2019-06-10T05:44:13.599Z,73.80
2019-06-10T05:46:43.743Z,76.60
2019-06-10T05:49:15.830Z,79.30
2019-06-10T05:51:45.383Z,81.60
2019-06-10T05:54:15.111Z,82.60
2019-06-10T05:56:44.853Z,83.30
2019-06-10T05:59:14.606Z,84.50
2019-06-10T06:01:44.567Z,83.90
2019-06-10T06:04:14.366Z,83.50
2019-06-10T06:06:45.126Z,82.40
2019-06-10T06:09:14.113Z,81.50
2019-06-10T06:11:43.700Z,82.00
2019-06-10T06:14:13.437Z,81.40
2019-06-10T06:16:43.555Z,81.00
2019-06-10T06:19:13.266Z,81.00
2019-06-10T06:21:47.646Z,80.30
2019-06-10T06:24:14.022Z,80.20
2019-06-10T06:26:43.663Z,79.50
2019-06-10T06:29:13.287Z,78.50
2019-06-10T06:31:43.184Z,78.20
2019-06-10T06:34:13.878Z,77.70
2019-06-10T06:36:44.988Z,76.70
2019-06-10T06:39:13.730Z,76.80
2019-06-10T06:41:43.920Z,77.10
2019-06-10T06:44:13.756Z,77.30
2019-06-10T06:46:43.733Z,78.30
2019-06-10T06:49:13.418Z,79.30
2019-06-10T06:51:54.592Z,76.40
2019-06-10T06:54:14.702Z,77.10
2019-06-10T06:56:44.363Z,77.70
2019-06-10T06:59:16.119Z,77.00
2019-06-10T07:01:45.863Z,77.60
2019-06-10T07:04:15.609Z,77.90
2019-06-10T07:06:45.266Z,77.60
2019-06-10T07:09:22.127Z,77.50
2019-06-10T07:11:52.960Z,77.80
2019-06-10T07:14:23.805Z,78.50
2019-06-10T07:16:53.432Z,77.50
2019-06-10T07:19:23.016Z,78.60
2019-06-10T07:22:08.813Z,77.30
2019-06-10T07:24:25.412Z,76.50
2019-06-10T07:26:55.207Z,75.60
2019-06-10T07:29:25.224Z,74.50
2019-06-10T07:31:56.061Z,74.70
2019-06-10T07:34:26.879Z,74.70
2019-06-10T07:36:58.083Z,74.80
2019-06-10T07:39:27.690Z,74.60
2019-06-10T07:41:57.252Z,75.00
2019-06-10T07:44:26.808Z,75.90
2019-06-10T07:46:57.045Z,75.60
2019-06-10T07:49:27.827Z,75.30
2019-06-10T07:52:12.021Z,74.40
2019-06-10T07:54:29.816Z,74.50
2019-06-10T07:57:02.269Z,74.60
2019-06-10T07:59:33.842Z,74.00
2019-06-10T08:02:12.421Z,74.60
2019-06-10T08:04:45.829Z,74.00
2019-06-10T08:07:15.408Z,73.50
2019-06-10T08:09:45.916Z,73.80
2019-06-10T08:12:17.342Z,74.00
2019-06-10T08:14:48.341Z,73.30
2019-06-10T08:17:18.756Z,72.30
2019-06-10T08:19:54.120Z,71.70
2019-06-10T08:22:35.152Z,71.90
2019-06-10T08:24:55.946Z,71.70
2019-06-10T08:27:26.741Z,71.40
2019-06-10T08:30:14.303Z,71.20
2019-06-10T08:32:29.040Z,70.50
2019-06-10T08:34:59.195Z,70.40
2019-06-10T08:37:29.354Z,70.50
2019-06-10T08:40:00.081Z,70.10
2019-06-10T08:42:32.378Z,70.30
2019-06-10T08:45:04.871Z,70.60
2019-06-10T08:47:45.616Z,70.50
2019-06-10T08:50:16.128Z,70.40
2019-06-10T08:53:03.336Z,71.10
2019-06-10T08:55:19.423Z,71.20
2019-06-10T08:57:54.022Z,70.60
2019-06-10T09:00:25.621Z,70.50
2019-06-10T09:03:26.971Z,70.80
2019-06-10T09:06:02.713Z,70.80
2019-06-10T09:08:34.085Z,71.50
2019-06-10T09:11:05.213Z,70.50
2019-06-10T09:13:36.020Z,69.70
2019-06-10T09:16:15.600Z,69.80
2019-06-10T09:18:41.822Z,70.50
2019-06-10T09:21:49.777Z,70.90
2019-06-10T09:24:17.064Z,71.60
2019-06-10T09:26:49.957Z,69.20
2019-06-10T09:29:39.626Z,69.10
2019-06-10T09:32:12.357Z,68.50
2019-06-10T09:34:47.157Z,67.90
2019-06-10T09:37:14.532Z,68.00
2019-06-10T09:39:58.020Z,68.40
2019-06-10T09:42:26.648Z,68.00
2019-06-10T09:45:16.209Z,66.50
2019-06-10T09:47:50.902Z,67.10
2019-06-10T09:50:23.379Z,65.50
2019-06-10T09:52:57.101Z,65.40
2019-06-10T09:55:32.920Z,63.70
2019-06-10T09:58:05.171Z,63.30
2019-06-10T10:00:48.842Z,63.80
2019-06-10T10:03:17.079Z,64.10
2019-06-10T10:06:01.648Z,63.90
2019-06-10T10:08:23.911Z,62.90
2019-06-10T10:10:58.745Z,61.10
2019-06-10T10:13:28.588Z,61.10
2019-06-10T10:16:13.117Z,60.40
2019-06-10T10:18:48.961Z,60.70
2019-06-10T10:21:22.131Z,58.70
2019-06-10T10:24:07.122Z,57.70
2019-06-10T10:29:48.868Z,57.60
2019-06-10T10:32:18.694Z,57.60
2019-06-10T10:34:49.958Z,57.40
2019-06-10T10:37:22.929Z,56.10
2019-06-10T10:45:47.332Z,57.70
2019-06-10T10:48:33.297Z,56.40
2019-06-10T10:51:04.655Z,56.40
2019-06-10T10:53:35.910Z,55.70
2019-06-10T10:56:06.672Z,55.10
2019-06-10T10:58:37.324Z,55.30
2019-06-10T11:01:08.275Z,56.30
2019-06-10T11:03:44.039Z,56.20
2019-06-10T11:06:13.030Z,56.10
2019-06-10T11:08:45.302Z,56.20
2019-06-10T11:11:15.299Z,56.10
2019-06-10T11:13:45.615Z,55.40
2019-06-10T11:16:15.682Z,54.30
2019-06-10T11:18:47.614Z,53.80
2019-06-10T11:21:17.507Z,53.40
2019-06-10T11:23:48.101Z,53.60
2019-06-10T11:26:18.334Z,53.90
2019-06-10T11:28:52.826Z,53.90
2019-06-10T11:31:22.672Z,53.50
2019-06-10T11:33:57.877Z,54.00
2019-06-10T11:36:27.396Z,53.70
2019-06-10T11:38:59.077Z,53.90
2019-06-10T11:41:32.462Z,53.20
2019-06-10T11:44:05.397Z,52.90
2019-06-10T11:46:59.674Z,53.00
2019-06-10T11:49:30.050Z,53.60
2019-06-10T11:51:59.665Z,54.10
2019-06-10T11:54:29.345Z,52.80
2019-06-10T11:57:22.825Z,53.60
2019-06-10T11:59:53.322Z,53.30
2019-06-10T12:02:27.840Z,53.10
2019-06-10T12:05:00.564Z,53.40
2019-06-10T12:07:33.206Z,53.30
2019-06-10T12:12:45.712Z,53.10
2019-06-10T12:15:16.730Z,52.60
2019-06-10T12:21:13.758Z,53.50
2019-06-10T12:28:15.665Z,52.50
2019-06-10T12:31:01.480Z,51.90
2019-06-10T12:36:40.223Z,50.70
2019-06-10T12:39:37.936Z,50.60
2019-06-10T12:45:07.402Z,50.90
2019-06-10T12:47:48.065Z,51.70
2019-06-10T12:50:36.482Z,51.70
2019-06-10T12:55:59.237Z,52.20
2019-06-10T12:58:33.749Z,51.60
2019-06-10T13:01:49.591Z,52.00
2019-06-10T13:04:21.291Z,52.10
2019-06-10T13:07:19.520Z,53.00
2019-06-10T13:09:53.987Z,52.20
2019-06-10T13:12:25.369Z,52.30
2019-06-10T13:15:04.800Z,52.20
2019-06-10T13:17:39.203Z,51.80
2019-06-10T13:20:13.431Z,51.60
2019-06-10T13:22:43.225Z,51.70
2019-06-10T13:25:16.938Z,51.00
2019-06-10T13:27:51.852Z,51.30
2019-06-10T13:30:54.637Z,50.90
2019-06-10T13:33:26.494Z,50.70
2019-06-10T13:35:57.143Z,50.30
2019-06-10T13:38:29.441Z,50.10
2019-06-10T13:45:08.568Z,48.90
2019-06-10T13:48:14.810Z,49.60
2019-06-10T13:56:49.450Z,48.90
2019-06-10T13:59:18.272Z,47.30
2019-06-10T14:01:47.711Z,46.10
2019-06-10T14:04:21.840Z,46.50
2019-06-10T14:06:50.577Z,45.80
2019-06-10T14:09:22.799Z,45.60
2019-06-10T14:11:51.344Z,45.80
2019-06-10T14:14:22.952Z,46.00
2019-06-10T14:17:09.666Z,46.00
2019-06-10T14:19:39.251Z,45.70
2019-06-10T14:22:09.973Z,45.60
2019-06-10T14:24:42.095Z,45.60
2019-06-10T14:27:17.410Z,45.50
2019-06-10T14:29:43.315Z,45.30
2019-06-10T14:32:15.765Z,45.40
2019-06-10T14:34:47.154Z,44.80
2019-06-10T14:37:31.862Z,45.20
2019-06-10T14:39:48.061Z,45.20
2019-06-10T14:42:18.574Z,44.20
2019-06-10T14:44:52.539Z,44.50
2019-06-10T14:47:22.959Z,44.70
2019-06-10T14:49:53.068Z,43.70
2019-06-10T14:52:23.572Z,43.90
2019-06-10T14:54:53.170Z,43.60
2019-06-10T14:57:23.379Z,43.10
2019-06-10T14:59:53.864Z,44.40
2019-06-10T15:02:23.902Z,44.00
2019-06-10T15:04:54.021Z,44.20
2019-06-10T15:07:24.202Z,44.20
2019-06-10T15:09:55.167Z,45.10
2019-06-10T15:12:25.676Z,45.90
2019-06-10T15:14:55.541Z,46.20
2019-06-10T15:17:27.773Z,47.60
2019-06-10T15:19:58.491Z,48.80
2019-06-10T15:22:52.765Z,49.80
2019-06-10T15:25:28.864Z,50.70
2019-06-10T15:27:59.035Z,51.30
2019-06-10T15:30:31.442Z,51.90
2019-06-10T15:33:00.137Z,52.50
2019-06-10T15:35:29.690Z,52.90
2019-06-10T15:37:59.391Z,53.40
2019-06-10T15:40:28.960Z,53.50
2019-06-10T15:43:28.739Z,52.30
2019-06-10T15:46:04.556Z,56.70
2019-06-10T15:48:43.379Z,62.10
2019-06-10T15:51:18.542Z,66.00
2019-06-10T15:53:45.694Z,72.80
2019-06-10T15:56:27.027Z,77.70
2019-06-10T15:58:47.611Z,81.30
2019-06-10T16:01:21.725Z,84.50
2019-06-10T16:03:49.749Z,86.60
2019-06-10T16:06:20.243Z,90.30
2019-06-10T16:08:52.358Z,88.70
2019-06-10T16:11:26.683Z,87.30
2019-06-10T16:13:53.703Z,89.00
2019-06-10T16:16:23.388Z,87.20
2019-06-10T16:18:54.023Z,88.50
2019-06-10T16:21:31.893Z,87.10
2019-06-10T16:24:02.780Z,86.30
2019-06-10T16:26:35.383Z,85.70
2019-06-10T16:29:03.759Z,83.90
2019-06-10T16:31:36.144Z,84.20
2019-06-10T16:34:05.786Z,84.60
2019-06-10T16:36:45.391Z,81.70
2019-06-10T16:39:14.954Z,82.90
2019-06-10T16:41:44.794Z,82.30
2019-06-10T16:44:15.839Z,82.20
2019-06-10T16:46:45.603Z,81.50
2019-06-10T16:49:15.241Z,80.50
2019-06-10T16:51:44.836Z,80.80
2019-06-10T16:54:14.407Z,80.90
2019-06-10T16:56:44.029Z,79.40
2019-06-10T16:59:14.632Z,80.20
2019-06-10T17:01:54.178Z,78.40
2019-06-10T17:04:39.606Z,78.10
2019-06-10T17:07:09.527Z,76.90
2019-06-10T17:09:42.029Z,76.70
2019-06-10T17:12:12.622Z,76.20
2019-06-10T17:14:52.638Z,75.80
2019-06-10T17:17:26.961Z,75.80
2019-06-10T17:20:05.174Z,76.80
2019-06-10T17:22:37.245Z,77.30
2019-06-10T17:25:06.971Z,77.60
2019-06-10T17:27:37.752Z,78.30
2019-06-10T17:30:07.656Z,78.10
2019-06-10T17:32:37.323Z,79.00
2019-06-10T17:35:06.894Z,79.50
2019-06-10T17:37:36.618Z,80.50
2019-06-10T17:40:06.349Z,81.00
2019-06-10T17:42:38.363Z,80.00
2019-06-10T17:45:07.441Z,79.50
2019-06-10T17:47:37.025Z,79.40
2019-06-10T17:50:06.811Z,78.70
2019-06-10T17:52:38.914Z,77.60
2019-06-10T17:55:09.403Z,77.50
2019-06-10T17:57:39.108Z,76.90
2019-06-10T18:00:12.225Z,76.90
2019-06-10T18:02:44.361Z,75.70
2019-06-10T18:05:14.092Z,74.90
2019-06-10T18:07:44.804Z,75.60
2019-06-10T18:10:15.693Z,75.40
2019-06-10T18:12:45.210Z,75.20
2019-06-10T18:15:14.838Z,74.80
2019-06-10T18:17:46.462Z,74.70
2019-06-10T18:20:57.570Z,73.80
2019-06-10T18:23:28.483Z,74.10
2019-06-10T18:26:00.283Z,73.80
2019-06-10T18:28:31.340Z,74.00
2019-06-10T18:31:01.479Z,74.20
2019-06-10T18:33:34.207Z,74.30
2019-06-10T18:36:02.293Z,75.20
2019-06-10T18:38:36.805Z,74.60
2019-06-10T18:41:05.732Z,75.20
2019-06-10T18:43:36.838Z,75.60
2019-06-10T18:46:06.601Z,75.80
2019-06-10T18:48:38.054Z,76.30
2019-06-10T18:51:07.658Z,77.20
2019-06-10T18:53:58.505Z,77.40
2019-06-10T18:56:27.664Z,77.20
2019-06-10T18:59:12.463Z,77.00
2019-06-10T19:01:30.382Z,78.00
2019-06-10T19:04:02.621Z,77.80
2019-06-10T19:06:33.835Z,78.00
2019-06-10T19:09:09.537Z,77.90
2019-06-10T19:11:40.168Z,77.80
2019-06-10T19:14:12.806Z,77.30
2019-06-10T19:16:43.176Z,76.90
2019-06-10T19:19:12.941Z,77.70
2019-06-10T19:21:44.036Z,78.00
2019-06-10T19:24:13.982Z,78.50
2019-06-10T19:26:45.128Z,78.60
2019-06-10T19:29:30.147Z,78.90
2019-06-10T19:31:47.658Z,78.90
2019-06-10T19:34:17.276Z,78.20
2019-06-10T19:36:47.023Z,79.40
2019-06-10T19:39:16.728Z,78.50
2019-06-10T19:41:47.511Z,78.60
2019-06-10T19:44:17.681Z,78.50
2019-06-10T19:46:47.259Z,79.70
2019-06-10T19:49:19.312Z,78.90
2019-06-10T19:51:49.063Z,79.50
2019-06-10T19:54:18.705Z,78.30
2019-06-10T19:56:48.264Z,78.10
2019-06-10T19:59:19.949Z,77.30
2019-06-10T20:01:49.753Z,77.90
2019-06-10T20:04:19.448Z,77.90
2019-06-10T20:06:50.807Z,78.00
2019-06-10T20:09:23.040Z,78.30
2019-06-10T20:11:52.907Z,78.80
2019-06-10T20:14:22.644Z,79.10
2019-06-10T20:16:52.713Z,79.30
2019-06-10T20:19:23.076Z,79.00
2019-06-10T20:21:52.665Z,79.30
2019-06-10T20:24:22.553Z,78.70
2019-06-10T20:26:52.971Z,78.90
2019-06-10T20:29:22.988Z,79.10
2019-06-10T20:31:59.528Z,79.90
2019-06-10T20:34:29.243Z,80.30
2019-06-10T20:36:58.833Z,80.70
2019-06-10T20:39:32.968Z,80.70
2019-06-10T20:42:05.803Z,80.10
2019-06-10T20:44:40.282Z,80.20
2019-06-10T20:47:16.390Z,80.30
2019-06-10T20:49:53.611Z,80.10
2019-06-10T20:52:27.498Z,79.50
2019-06-10T20:55:04.355Z,79.20
2019-06-10T20:57:50.082Z,79.60
2019-06-10T21:00:22.212Z,80.30
2019-06-10T21:02:45.458Z,80.60
2019-06-10T21:05:14.211Z,80.30
2019-06-10T21:07:45.111Z,81.20
2019-06-10T21:10:32.766Z,81.40
2019-06-10T21:13:03.570Z,81.60
2019-06-10T21:15:33.466Z,80.90
2019-06-10T21:18:03.106Z,81.60
2019-06-10T21:27:58.880Z,80.10
2019-06-10T21:35:05.929Z,80.60
2019-06-10T21:38:38.745Z,80.80
2019-06-10T21:44:59.612Z,81.30
2019-06-10T21:47:32.417Z,81.10
2019-06-10T21:50:08.229Z,81.30
2019-06-10T21:52:37.971Z,81.10
2019-06-10T21:55:28.096Z,81.70
2019-06-10T21:57:57.630Z,81.80
2019-06-10T22:00:52.075Z,82.10
2019-06-10T22:03:08.571Z,81.70
2019-06-10T22:05:49.967Z,81.70
2019-06-10T22:08:19.624Z,81.50
2019-06-10T22:10:50.018Z,81.70
2019-06-10T22:13:19.817Z,81.40
2019-06-10T22:15:57.185Z,81.60
2019-06-10T22:18:27.776Z,81.30
2019-06-10T22:21:07.715Z,81.20
2019-06-10T22:23:37.254Z,81.30
2019-06-10T22:26:08.874Z,81.70
2019-06-10T22:28:38.416Z,81.40
2019-06-10T22:31:22.294Z,81.00
2019-06-10T22:33:45.411Z,81.00
2019-06-10T22:36:16.080Z,81.20
2019-06-10T22:38:46.154Z,81.30
2019-06-10T22:41:15.677Z,81.60
2019-06-10T22:43:45.351Z,82.30
2019-06-10T22:46:15.359Z,82.30
2019-06-10T22:48:45.034Z,82.50
2019-06-10T22:51:22.704Z,82.30
2019-06-10T22:53:58.045Z,82.20
2019-06-10T22:56:26.244Z,82.80
2019-06-10T22:58:57.349Z,83.10
2019-06-10T23:01:34.339Z,82.70
2019-06-10T23:04:00.372Z,82.80
2019-06-10T23:06:30.140Z,82.80
2019-06-10T23:08:59.697Z,82.60
2019-06-10T23:11:34.852Z,82.80
2019-06-10T23:14:04.449Z,82.40
2019-06-10T23:16:34.040Z,82.40
2019-06-10T23:19:03.575Z,82.40
2019-06-10T23:21:33.120Z,82.60
2019-06-10T23:24:03.293Z,82.50
2019-06-10T23:26:33.320Z,82.40
2019-06-10T23:29:03.800Z,82.70
2019-06-10T23:31:48.622Z,83.10
2019-06-10T23:34:05.773Z,83.20
2019-06-10T23:36:35.356Z,83.30
2019-06-10T23:39:05.587Z,83.20
2019-06-10T23:41:35.663Z,83.60
2019-06-10T23:44:06.479Z,84.30
2019-06-10T23:46:35.302Z,84.80
2019-06-10T23:49:08.401Z,85.40
2019-06-10T23:51:38.111Z,85.90
2019-06-10T23:54:07.977Z,86.40
2019-06-10T23:56:39.878Z,86.40
2019-06-10T23:59:11.925Z,86.40
